sensor_id;sensor_type;location;lat;lon;timestamp;temperature;humidity
4687;DHT22;2357;47.316;-1.348;2023-11-19T00:02:22;15.10;99.90
4687;DHT22;2357;47.316;-1.348;2023-11-19T00:04:47;15.10;99.90
4687;DHT22;2357;47.316;-1.348;2023-11-19T00:07:13;15.00;99.90
4687;DHT22;2357;47.316;-1.348;2023-11-19T00:09:39;15.00;99.90
4687;DHT22;2357;47.316;-1.348;2023-11-19T00:12:06;15.10;99.90
4687;DHT22;2357;47.316;-1.348;2023-11-19T00:14:32;15.00;99.90
4687;DHT22;2357;47.316;-1.348;2023-11-19T00:16:58;15.00;99.90
4687;DHT22;2357;47.316;-1.348;2023-11-19T00:19:24;15.10;99.90
4687;DHT22;2357;47.316;-1.348;2023-11-19T00:21:50;15.00;99.90
4687;DHT22;2357;47.316;-1.348;2023-11-19T00:24:16;15.00;99.90
4687;DHT22;2357;47.316;-1.348;2023-11-19T00:26:43;15.00;99.90
4687;DHT22;2357;47.316;-1.348;2023-11-19T00:29:08;15.00;99.90
4687;DHT22;2357;47.316;-1.348;2023-11-19T00:31:34;15.00;99.90
4687;DHT22;2357;47.316;-1.348;2023-11-19T00:34:00;15.00;99.90
4687;DHT22;2357;47.316;-1.348;2023-11-19T00:36:27;15.00;99.90
4687;DHT22;2357;47.316;-1.348;2023-11-19T00:38:53;15.00;99.90
4687;DHT22;2357;47.316;-1.348;2023-11-19T00:41:19;15.00;99.90
4687;DHT22;2357;47.316;-1.348;2023-11-19T00:43:45;15.00;99.90
4687;DHT22;2357;47.316;-1.348;2023-11-19T00:46:10;15.00;99.90
4687;DHT22;2357;47.316;-1.348;2023-11-19T00:48:39;15.00;99.90
4687;DHT22;2357;47.316;-1.348;2023-11-19T00:51:05;15.00;99.90
4687;DHT22;2357;47.316;-1.348;2023-11-19T00:53:31;15.00;99.90
4687;DHT22;2357;47.316;-1.348;2023-11-19T00:55:57;15.00;99.90
4687;DHT22;2357;47.316;-1.348;2023-11-19T00:58:23;15.00;99.90
4687;DHT22;2357;47.316;-1.348;2023-11-19T01:00:49;15.00;99.90
4687;DHT22;2357;47.316;-1.348;2023-11-19T01:03:15;14.90;99.90
4687;DHT22;2357;47.316;-1.348;2023-11-19T01:05:41;14.90;99.90
4687;DHT22;2357;47.316;-1.348;2023-11-19T01:08:07;14.90;99.90
4687;DHT22;2357;47.316;-1.348;2023-11-19T01:10:33;14.90;99.90
4687;DHT22;2357;47.316;-1.348;2023-11-19T01:12:59;15.00;99.90
4687;DHT22;2357;47.316;-1.348;2023-11-19T01:15:25;15.00;99.90
4687;DHT22;2357;47.316;-1.348;2023-11-19T01:17:51;14.90;99.90
4687;DHT22;2357;47.316;-1.348;2023-11-19T01:20:17;14.90;99.90
4687;DHT22;2357;47.316;-1.348;2023-11-19T01:22:42;14.90;99.90
4687;DHT22;2357;47.316;-1.348;2023-11-19T01:25:09;14.90;99.90
4687;DHT22;2357;47.316;-1.348;2023-11-19T01:27:34;14.90;99.90
4687;DHT22;2357;47.316;-1.348;2023-11-19T01:30:01;14.90;99.90
4687;DHT22;2357;47.316;-1.348;2023-11-19T01:32:31;14.90;99.90
4687;DHT22;2357;47.316;-1.348;2023-11-19T01:34:57;14.90;99.90
4687;DHT22;2357;47.316;-1.348;2023-11-19T01:37:22;14.90;99.90
4687;DHT22;2357;47.316;-1.348;2023-11-19T01:39:48;14.90;99.90
4687;DHT22;2357;47.316;-1.348;2023-11-19T01:42:14;14.90;99.90
4687;DHT22;2357;47.316;-1.348;2023-11-19T01:44:41;14.90;99.90
4687;DHT22;2357;47.316;-1.348;2023-11-19T01:47:07;14.90;99.90
4687;DHT22;2357;47.316;-1.348;2023-11-19T01:49:34;14.90;99.90
4687;DHT22;2357;47.316;-1.348;2023-11-19T01:52:00;14.90;99.90
4687;DHT22;2357;47.316;-1.348;2023-11-19T01:54:26;14.80;99.90
4687;DHT22;2357;47.316;-1.348;2023-11-19T01:56:53;14.80;99.90
4687;DHT22;2357;47.316;-1.348;2023-11-19T01:59:22;14.80;99.90
4687;DHT22;2357;47.316;-1.348;2023-11-19T02:01:52;14.80;99.90
4687;DHT22;2357;47.316;-1.348;2023-11-19T02:04:21;14.80;99.90
4687;DHT22;2357;47.316;-1.348;2023-11-19T02:06:48;14.70;99.90
4687;DHT22;2357;47.316;-1.348;2023-11-19T02:09:15;14.70;99.90
4687;DHT22;2357;47.316;-1.348;2023-11-19T02:11:45;14.70;99.90
4687;DHT22;2357;47.316;-1.348;2023-11-19T02:14:13;14.70;99.90
4687;DHT22;2357;47.316;-1.348;2023-11-19T02:16:38;14.60;99.90
4687;DHT22;2357;47.316;-1.348;2023-11-19T02:19:04;14.60;99.90
4687;DHT22;2357;47.316;-1.348;2023-11-19T02:21:31;14.60;99.90
4687;DHT22;2357;47.316;-1.348;2023-11-19T02:23:57;14.60;99.90
4687;DHT22;2357;47.316;-1.348;2023-11-19T02:26:37;14.50;99.90
4687;DHT22;2357;47.316;-1.348;2023-11-19T02:29:04;14.60;99.90
4687;DHT22;2357;47.316;-1.348;2023-11-19T02:31:32;14.60;99.90
4687;DHT22;2357;47.316;-1.348;2023-11-19T02:33:59;14.60;99.90
4687;DHT22;2357;47.316;-1.348;2023-11-19T02:36:25;14.60;99.90
4687;DHT22;2357;47.316;-1.348;2023-11-19T02:38:51;14.50;99.90
4687;DHT22;2357;47.316;-1.348;2023-11-19T02:41:16;14.50;99.90
4687;DHT22;2357;47.316;-1.348;2023-11-19T02:43:42;14.50;99.90
4687;DHT22;2357;47.316;-1.348;2023-11-19T02:46:08;14.50;99.90
4687;DHT22;2357;47.316;-1.348;2023-11-19T02:48:34;14.60;99.90
4687;DHT22;2357;47.316;-1.348;2023-11-19T02:51:03;14.50;99.90
4687;DHT22;2357;47.316;-1.348;2023-11-19T02:53:32;14.50;99.90
4687;DHT22;2357;47.316;-1.348;2023-11-19T02:55:57;14.50;99.90
4687;DHT22;2357;47.316;-1.348;2023-11-19T02:58:43;14.40;99.90
4687;DHT22;2357;47.316;-1.348;2023-11-19T03:01:10;14.50;99.90
4687;DHT22;2357;47.316;-1.348;2023-11-19T03:03:44;14.50;99.90
4687;DHT22;2357;47.316;-1.348;2023-11-19T03:06:14;14.40;99.90
4687;DHT22;2357;47.316;-1.348;2023-11-19T03:08:40;14.40;99.90
4687;DHT22;2357;47.316;-1.348;2023-11-19T03:11:05;14.40;99.90
4687;DHT22;2357;47.316;-1.348;2023-11-19T03:13:31;14.40;99.90
4687;DHT22;2357;47.316;-1.348;2023-11-19T03:15:57;14.50;99.90
4687;DHT22;2357;47.316;-1.348;2023-11-19T03:18:22;14.40;99.90
4687;DHT22;2357;47.316;-1.348;2023-11-19T03:20:48;14.40;99.90
4687;DHT22;2357;47.316;-1.348;2023-11-19T03:23:15;14.40;99.90
4687;DHT22;2357;47.316;-1.348;2023-11-19T03:25:40;14.40;99.90
4687;DHT22;2357;47.316;-1.348;2023-11-19T03:28:06;14.40;99.90
4687;DHT22;2357;47.316;-1.348;2023-11-19T03:30:32;14.50;99.90
4687;DHT22;2357;47.316;-1.348;2023-11-19T03:32:58;14.40;99.90
4687;DHT22;2357;47.316;-1.348;2023-11-19T03:35:25;14.40;99.90
4687;DHT22;2357;47.316;-1.348;2023-11-19T03:37:51;14.40;99.90
4687;DHT22;2357;47.316;-1.348;2023-11-19T03:40:17;14.40;99.90
4687;DHT22;2357;47.316;-1.348;2023-11-19T03:42:44;14.40;99.90
4687;DHT22;2357;47.316;-1.348;2023-11-19T03:45:10;14.40;99.90
4687;DHT22;2357;47.316;-1.348;2023-11-19T03:47:36;14.30;99.90
4687;DHT22;2357;47.316;-1.348;2023-11-19T03:50:02;14.30;99.90
4687;DHT22;2357;47.316;-1.348;2023-11-19T03:52:28;14.30;99.90
4687;DHT22;2357;47.316;-1.348;2023-11-19T03:54:54;14.20;99.90
4687;DHT22;2357;47.316;-1.348;2023-11-19T03:57:21;14.20;99.90
4687;DHT22;2357;47.316;-1.348;2023-11-19T03:59:47;14.20;99.90
4687;DHT22;2357;47.316;-1.348;2023-11-19T04:02:12;14.30;99.90
4687;DHT22;2357;47.316;-1.348;2023-11-19T04:04:38;14.30;99.90
4687;DHT22;2357;47.316;-1.348;2023-11-19T04:07:05;14.30;99.90
4687;DHT22;2357;47.316;-1.348;2023-11-19T04:09:30;14.30;99.90
4687;DHT22;2357;47.316;-1.348;2023-11-19T04:11:58;14.20;99.90
4687;DHT22;2357;47.316;-1.348;2023-11-19T04:14:24;14.20;99.90
4687;DHT22;2357;47.316;-1.348;2023-11-19T04:16:50;14.20;99.90
4687;DHT22;2357;47.316;-1.348;2023-11-19T04:19:17;14.20;99.90
4687;DHT22;2357;47.316;-1.348;2023-11-19T04:21:42;14.20;99.90
4687;DHT22;2357;47.316;-1.348;2023-11-19T04:24:09;14.20;99.90
4687;DHT22;2357;47.316;-1.348;2023-11-19T04:26:43;14.20;99.90
4687;DHT22;2357;47.316;-1.348;2023-11-19T04:29:12;14.20;99.90
4687;DHT22;2357;47.316;-1.348;2023-11-19T04:31:38;14.20;99.90
4687;DHT22;2357;47.316;-1.348;2023-11-19T04:34:05;14.20;99.90
4687;DHT22;2357;47.316;-1.348;2023-11-19T04:36:32;14.10;99.90
4687;DHT22;2357;47.316;-1.348;2023-11-19T04:38:58;14.20;99.90
4687;DHT22;2357;47.316;-1.348;2023-11-19T04:41:25;14.10;99.90
4687;DHT22;2357;47.316;-1.348;2023-11-19T04:43:51;14.10;99.90
4687;DHT22;2357;47.316;-1.348;2023-11-19T04:46:17;14.10;99.90
4687;DHT22;2357;47.316;-1.348;2023-11-19T04:48:42;14.10;99.90
4687;DHT22;2357;47.316;-1.348;2023-11-19T04:51:08;14.10;99.90
4687;DHT22;2357;47.316;-1.348;2023-11-19T04:53:35;14.10;99.90
4687;DHT22;2357;47.316;-1.348;2023-11-19T04:56:00;14.10;99.90
4687;DHT22;2357;47.316;-1.348;2023-11-19T04:58:29;14.10;99.90
4687;DHT22;2357;47.316;-1.348;2023-11-19T05:00:54;14.10;99.90
4687;DHT22;2357;47.316;-1.348;2023-11-19T05:03:20;14.10;99.90
4687;DHT22;2357;47.316;-1.348;2023-11-19T05:05:48;14.10;99.90
4687;DHT22;2357;47.316;-1.348;2023-11-19T05:08:14;14.00;99.90
4687;DHT22;2357;47.316;-1.348;2023-11-19T05:10:39;14.00;99.90
4687;DHT22;2357;47.316;-1.348;2023-11-19T05:13:06;14.00;99.90
4687;DHT22;2357;47.316;-1.348;2023-11-19T05:15:32;14.00;99.90
4687;DHT22;2357;47.316;-1.348;2023-11-19T05:17:58;14.00;99.90
4687;DHT22;2357;47.316;-1.348;2023-11-19T05:20:24;13.90;99.90
4687;DHT22;2357;47.316;-1.348;2023-11-19T05:22:50;13.90;99.90
4687;DHT22;2357;47.316;-1.348;2023-11-19T05:25:17;13.80;99.90
4687;DHT22;2357;47.316;-1.348;2023-11-19T05:27:42;13.80;99.90
4687;DHT22;2357;47.316;-1.348;2023-11-19T05:30:08;13.80;99.90
4687;DHT22;2357;47.316;-1.348;2023-11-19T05:32:35;13.70;99.90
4687;DHT22;2357;47.316;-1.348;2023-11-19T05:35:01;13.70;99.90
4687;DHT22;2357;47.316;-1.348;2023-11-19T05:37:27;13.70;99.90
4687;DHT22;2357;47.316;-1.348;2023-11-19T05:39:52;13.70;99.90
4687;DHT22;2357;47.316;-1.348;2023-11-19T05:42:18;13.70;99.90
4687;DHT22;2357;47.316;-1.348;2023-11-19T05:44:44;13.70;99.90
4687;DHT22;2357;47.316;-1.348;2023-11-19T05:47:09;13.60;99.90
4687;DHT22;2357;47.316;-1.348;2023-11-19T05:49:35;13.60;99.90
4687;DHT22;2357;47.316;-1.348;2023-11-19T05:52:01;13.60;99.90
4687;DHT22;2357;47.316;-1.348;2023-11-19T05:54:28;13.60;99.90
4687;DHT22;2357;47.316;-1.348;2023-11-19T05:56:54;13.60;99.90
4687;DHT22;2357;47.316;-1.348;2023-11-19T05:59:20;13.60;99.90
4687;DHT22;2357;47.316;-1.348;2023-11-19T06:01:48;13.50;99.90
4687;DHT22;2357;47.316;-1.348;2023-11-19T06:04:13;13.50;99.90
4687;DHT22;2357;47.316;-1.348;2023-11-19T06:06:39;13.50;99.90
4687;DHT22;2357;47.316;-1.348;2023-11-19T06:09:06;13.50;99.90
4687;DHT22;2357;47.316;-1.348;2023-11-19T06:11:33;13.50;99.90
4687;DHT22;2357;47.316;-1.348;2023-11-19T06:13:58;13.40;99.90
4687;DHT22;2357;47.316;-1.348;2023-11-19T06:16:24;13.50;99.90
4687;DHT22;2357;47.316;-1.348;2023-11-19T06:18:49;13.40;99.90
4687;DHT22;2357;47.316;-1.348;2023-11-19T06:21:15;13.40;99.90
4687;DHT22;2357;47.316;-1.348;2023-11-19T06:23:41;13.40;99.90
4687;DHT22;2357;47.316;-1.348;2023-11-19T06:26:07;13.40;99.90
4687;DHT22;2357;47.316;-1.348;2023-11-19T06:28:34;13.40;99.90
4687;DHT22;2357;47.316;-1.348;2023-11-19T06:31:00;13.40;99.90
4687;DHT22;2357;47.316;-1.348;2023-11-19T06:33:26;13.40;99.90
4687;DHT22;2357;47.316;-1.348;2023-11-19T06:35:52;13.40;99.90
4687;DHT22;2357;47.316;-1.348;2023-11-19T06:38:18;13.40;99.90
4687;DHT22;2357;47.316;-1.348;2023-11-19T06:40:44;13.30;99.90
4687;DHT22;2357;47.316;-1.348;2023-11-19T06:43:09;13.40;99.90
4687;DHT22;2357;47.316;-1.348;2023-11-19T06:45:35;13.40;99.90
4687;DHT22;2357;47.316;-1.348;2023-11-19T06:48:02;13.40;99.90
4687;DHT22;2357;47.316;-1.348;2023-11-19T06:50:31;13.40;99.90
4687;DHT22;2357;47.316;-1.348;2023-11-19T06:52:57;13.40;99.90
4687;DHT22;2357;47.316;-1.348;2023-11-19T06:55:23;13.40;99.90
4687;DHT22;2357;47.316;-1.348;2023-11-19T06:57:49;13.40;99.90
4687;DHT22;2357;47.316;-1.348;2023-11-19T07:00:14;13.30;99.90
4687;DHT22;2357;47.316;-1.348;2023-11-19T07:02:40;13.30;99.90
4687;DHT22;2357;47.316;-1.348;2023-11-19T07:05:06;13.30;99.90
4687;DHT22;2357;47.316;-1.348;2023-11-19T07:07:33;13.20;99.90
4687;DHT22;2357;47.316;-1.348;2023-11-19T07:09:59;13.30;99.90
4687;DHT22;2357;47.316;-1.348;2023-11-19T07:12:24;13.20;99.90
4687;DHT22;2357;47.316;-1.348;2023-11-19T07:14:53;13.20;99.90
4687;DHT22;2357;47.316;-1.348;2023-11-19T07:17:20;13.20;99.90
4687;DHT22;2357;47.316;-1.348;2023-11-19T07:19:47;13.20;99.90
4687;DHT22;2357;47.316;-1.348;2023-11-19T07:22:13;13.20;99.90
4687;DHT22;2357;47.316;-1.348;2023-11-19T07:24:39;13.20;99.90
4687;DHT22;2357;47.316;-1.348;2023-11-19T07:27:06;13.20;99.90
4687;DHT22;2357;47.316;-1.348;2023-11-19T07:29:32;13.20;99.90
4687;DHT22;2357;47.316;-1.348;2023-11-19T07:31:57;13.20;99.90
4687;DHT22;2357;47.316;-1.348;2023-11-19T07:34:24;13.20;99.90
4687;DHT22;2357;47.316;-1.348;2023-11-19T07:36:50;13.20;99.90
4687;DHT22;2357;47.316;-1.348;2023-11-19T07:39:15;13.20;99.90
4687;DHT22;2357;47.316;-1.348;2023-11-19T07:41:41;13.20;99.90
4687;DHT22;2357;47.316;-1.348;2023-11-19T07:44:07;13.20;99.90
4687;DHT22;2357;47.316;-1.348;2023-11-19T07:46:32;13.20;99.90
4687;DHT22;2357;47.316;-1.348;2023-11-19T07:48:58;13.20;99.90
4687;DHT22;2357;47.316;-1.348;2023-11-19T07:51:23;13.20;99.90
4687;DHT22;2357;47.316;-1.348;2023-11-19T07:53:49;13.20;99.90
4687;DHT22;2357;47.316;-1.348;2023-11-19T07:56:15;13.30;99.90
4687;DHT22;2357;47.316;-1.348;2023-11-19T07:58:40;13.20;99.90
4687;DHT22;2357;47.316;-1.348;2023-11-19T08:01:06;13.30;99.90
4687;DHT22;2357;47.316;-1.348;2023-11-19T08:03:32;13.30;99.90
4687;DHT22;2357;47.316;-1.348;2023-11-19T08:05:59;13.40;99.90
4687;DHT22;2357;47.316;-1.348;2023-11-19T08:08:25;13.40;99.90
4687;DHT22;2357;47.316;-1.348;2023-11-19T08:10:50;13.50;99.90
4687;DHT22;2357;47.316;-1.348;2023-11-19T08:13:22;13.50;99.90
4687;DHT22;2357;47.316;-1.348;2023-11-19T08:15:47;13.50;99.90
4687;DHT22;2357;47.316;-1.348;2023-11-19T08:18:13;13.50;99.90
4687;DHT22;2357;47.316;-1.348;2023-11-19T08:20:38;13.50;99.90
4687;DHT22;2357;47.316;-1.348;2023-11-19T08:23:04;13.50;99.90
4687;DHT22;2357;47.316;-1.348;2023-11-19T08:25:30;13.60;99.90
4687;DHT22;2357;47.316;-1.348;2023-11-19T08:27:56;13.50;99.90
4687;DHT22;2357;47.316;-1.348;2023-11-19T08:30:21;13.60;99.90
4687;DHT22;2357;47.316;-1.348;2023-11-19T08:32:47;13.60;99.90
4687;DHT22;2357;47.316;-1.348;2023-11-19T08:35:12;13.60;99.90
4687;DHT22;2357;47.316;-1.348;2023-11-19T08:37:38;13.60;99.90
4687;DHT22;2357;47.316;-1.348;2023-11-19T08:40:04;13.70;99.90
4687;DHT22;2357;47.316;-1.348;2023-11-19T08:42:30;13.70;99.90
4687;DHT22;2357;47.316;-1.348;2023-11-19T08:44:56;13.80;99.90
4687;DHT22;2357;47.316;-1.348;2023-11-19T08:47:22;13.90;99.90
4687;DHT22;2357;47.316;-1.348;2023-11-19T08:49:51;14.00;99.90
4687;DHT22;2357;47.316;-1.348;2023-11-19T08:52:20;14.00;99.90
4687;DHT22;2357;47.316;-1.348;2023-11-19T08:54:46;14.00;99.90
4687;DHT22;2357;47.316;-1.348;2023-11-19T08:57:11;14.00;99.90
4687;DHT22;2357;47.316;-1.348;2023-11-19T08:59:37;14.00;99.90
4687;DHT22;2357;47.316;-1.348;2023-11-19T09:02:05;14.10;99.90
4687;DHT22;2357;47.316;-1.348;2023-11-19T09:04:32;14.10;99.90
4687;DHT22;2357;47.316;-1.348;2023-11-19T09:06:58;14.20;99.90
4687;DHT22;2357;47.316;-1.348;2023-11-19T09:09:23;14.10;99.90
4687;DHT22;2357;47.316;-1.348;2023-11-19T09:11:49;14.10;99.90
4687;DHT22;2357;47.316;-1.348;2023-11-19T09:14:15;14.10;99.90
4687;DHT22;2357;47.316;-1.348;2023-11-19T09:16:41;14.20;99.90
4687;DHT22;2357;47.316;-1.348;2023-11-19T09:19:06;14.20;99.90
4687;DHT22;2357;47.316;-1.348;2023-11-19T09:21:32;14.20;99.90
4687;DHT22;2357;47.316;-1.348;2023-11-19T09:23:59;14.20;99.90
4687;DHT22;2357;47.316;-1.348;2023-11-19T09:26:25;14.20;99.90
4687;DHT22;2357;47.316;-1.348;2023-11-19T09:28:51;14.30;99.90
4687;DHT22;2357;47.316;-1.348;2023-11-19T09:31:17;14.30;99.90
4687;DHT22;2357;47.316;-1.348;2023-11-19T09:33:43;14.30;99.90
4687;DHT22;2357;47.316;-1.348;2023-11-19T09:36:11;14.40;99.90
4687;DHT22;2357;47.316;-1.348;2023-11-19T09:38:39;14.30;99.90
4687;DHT22;2357;47.316;-1.348;2023-11-19T09:41:06;14.30;99.90
4687;DHT22;2357;47.316;-1.348;2023-11-19T09:43:35;14.30;99.90
4687;DHT22;2357;47.316;-1.348;2023-11-19T09:46:05;14.30;99.90
4687;DHT22;2357;47.316;-1.348;2023-11-19T09:48:35;14.30;99.90
4687;DHT22;2357;47.316;-1.348;2023-11-19T09:51:02;14.30;99.90
4687;DHT22;2357;47.316;-1.348;2023-11-19T09:53:28;14.40;99.90
4687;DHT22;2357;47.316;-1.348;2023-11-19T09:55:55;14.40;99.90
4687;DHT22;2357;47.316;-1.348;2023-11-19T09:58:21;14.60;99.90
4687;DHT22;2357;47.316;-1.348;2023-11-19T10:00:49;14.60;99.90
4687;DHT22;2357;47.316;-1.348;2023-11-19T10:03:15;14.60;99.90
4687;DHT22;2357;47.316;-1.348;2023-11-19T10:05:41;14.50;99.90
4687;DHT22;2357;47.316;-1.348;2023-11-19T10:08:07;14.60;99.90
4687;DHT22;2357;47.316;-1.348;2023-11-19T10:10:37;14.70;99.90
4687;DHT22;2357;47.316;-1.348;2023-11-19T10:13:03;14.70;99.90
4687;DHT22;2357;47.316;-1.348;2023-11-19T10:15:36;14.80;99.90
4687;DHT22;2357;47.316;-1.348;2023-11-19T10:18:03;14.80;99.90
4687;DHT22;2357;47.316;-1.348;2023-11-19T10:20:38;14.90;99.90
4687;DHT22;2357;47.316;-1.348;2023-11-19T10:23:05;15.10;99.90
4687;DHT22;2357;47.316;-1.348;2023-11-19T10:25:33;15.10;99.90
4687;DHT22;2357;47.316;-1.348;2023-11-19T10:27:59;15.10;99.90
4687;DHT22;2357;47.316;-1.348;2023-11-19T10:30:27;15.20;99.90
4687;DHT22;2357;47.316;-1.348;2023-11-19T10:33:04;15.30;99.90
4687;DHT22;2357;47.316;-1.348;2023-11-19T10:35:35;15.20;99.90
4687;DHT22;2357;47.316;-1.348;2023-11-19T10:38:02;15.30;99.90
4687;DHT22;2357;47.316;-1.348;2023-11-19T10:40:38;15.40;99.90
4687;DHT22;2357;47.316;-1.348;2023-11-19T10:43:05;15.50;99.90
4687;DHT22;2357;47.316;-1.348;2023-11-19T10:45:33;15.40;99.90
4687;DHT22;2357;47.316;-1.348;2023-11-19T10:47:59;15.30;99.90
4687;DHT22;2357;47.316;-1.348;2023-11-19T10:50:26;15.20;99.90
4687;DHT22;2357;47.316;-1.348;2023-11-19T10:52:56;15.10;99.90
4687;DHT22;2357;47.316;-1.348;2023-11-19T10:55:28;15.10;99.90
4687;DHT22;2357;47.316;-1.348;2023-11-19T10:58:00;15.00;99.90
4687;DHT22;2357;47.316;-1.348;2023-11-19T11:00:28;15.00;99.90
4687;DHT22;2357;47.316;-1.348;2023-11-19T11:03:00;15.00;99.90
4687;DHT22;2357;47.316;-1.348;2023-11-19T11:05:26;15.00;99.90
4687;DHT22;2357;47.316;-1.348;2023-11-19T11:07:55;15.00;99.90
4687;DHT22;2357;47.316;-1.348;2023-11-19T11:10:25;15.10;99.90
4687;DHT22;2357;47.316;-1.348;2023-11-19T11:12:52;15.20;99.90
4687;DHT22;2357;47.316;-1.348;2023-11-19T11:15:27;15.20;99.90
4687;DHT22;2357;47.316;-1.348;2023-11-19T11:17:59;15.20;99.90
4687;DHT22;2357;47.316;-1.348;2023-11-19T11:20:28;15.30;99.90
4687;DHT22;2357;47.316;-1.348;2023-11-19T11:26:20;15.40;99.90
4687;DHT22;2357;47.316;-1.348;2023-11-19T11:29:24;15.50;99.90
4687;DHT22;2357;47.316;-1.348;2023-11-19T11:37:24;15.50;99.90
4687;DHT22;2357;47.316;-1.348;2023-11-19T11:39:51;15.40;99.90
4687;DHT22;2357;47.316;-1.348;2023-11-19T11:45:04;15.40;99.90
4687;DHT22;2357;47.316;-1.348;2023-11-19T11:50:14;15.40;99.90
4687;DHT22;2357;47.316;-1.348;2023-11-19T11:55:37;15.40;99.90
4687;DHT22;2357;47.316;-1.348;2023-11-19T11:58:04;15.30;99.90
4687;DHT22;2357;47.316;-1.348;2023-11-19T12:00:32;15.20;99.90
4687;DHT22;2357;47.316;-1.348;2023-11-19T12:03:00;15.10;99.90
4687;DHT22;2357;47.316;-1.348;2023-11-19T12:05:26;15.10;99.90
4687;DHT22;2357;47.316;-1.348;2023-11-19T12:10:24;15.10;99.90
4687;DHT22;2357;47.316;-1.348;2023-11-19T12:12:53;15.10;99.90
4687;DHT22;2357;47.316;-1.348;2023-11-19T12:15:18;15.10;99.90
4687;DHT22;2357;47.316;-1.348;2023-11-19T12:17:49;15.00;99.90
4687;DHT22;2357;47.316;-1.348;2023-11-19T12:20:16;15.10;99.90
4687;DHT22;2357;47.316;-1.348;2023-11-19T12:22:43;15.20;99.90
4687;DHT22;2357;47.316;-1.348;2023-11-19T12:25:11;15.30;99.90
4687;DHT22;2357;47.316;-1.348;2023-11-19T12:27:39;15.30;99.90
4687;DHT22;2357;47.316;-1.348;2023-11-19T12:30:06;15.10;99.90
4687;DHT22;2357;47.316;-1.348;2023-11-19T12:32:42;15.00;99.90
4687;DHT22;2357;47.316;-1.348;2023-11-19T12:35:08;14.90;99.90
4687;DHT22;2357;47.316;-1.348;2023-11-19T12:37:47;14.90;99.90
4687;DHT22;2357;47.316;-1.348;2023-11-19T12:40:30;15.00;99.90
4687;DHT22;2357;47.316;-1.348;2023-11-19T12:42:56;15.00;99.90
4687;DHT22;2357;47.316;-1.348;2023-11-19T12:45:22;14.90;99.90
4687;DHT22;2357;47.316;-1.348;2023-11-19T12:47:49;14.90;99.90
4687;DHT22;2357;47.316;-1.348;2023-11-19T12:50:18;15.00;99.90
4687;DHT22;2357;47.316;-1.348;2023-11-19T12:52:55;15.20;99.90
4687;DHT22;2357;47.316;-1.348;2023-11-19T12:57:51;15.00;99.90
4687;DHT22;2357;47.316;-1.348;2023-11-19T13:00:21;15.00;99.90
4687;DHT22;2357;47.316;-1.348;2023-11-19T13:02:49;15.00;99.90
4687;DHT22;2357;47.316;-1.348;2023-11-19T13:05:27;15.10;99.90
4687;DHT22;2357;47.316;-1.348;2023-11-19T13:08:06;15.00;99.90
4687;DHT22;2357;47.316;-1.348;2023-11-19T13:10:52;16.70;99.90
4687;DHT22;2357;47.316;-1.348;2023-11-19T13:13:21;16.20;99.90
4687;DHT22;2357;47.316;-1.348;2023-11-19T13:15:46;15.90;99.90
4687;DHT22;2357;47.316;-1.348;2023-11-19T13:18:12;15.70;99.90
4687;DHT22;2357;47.316;-1.348;2023-11-19T13:20:39;15.30;99.90
4687;DHT22;2357;47.316;-1.348;2023-11-19T13:23:06;15.20;99.90
4687;DHT22;2357;47.316;-1.348;2023-11-19T13:25:35;15.10;99.90
4687;DHT22;2357;47.316;-1.348;2023-11-19T13:28:01;15.20;99.90
4687;DHT22;2357;47.316;-1.348;2023-11-19T13:30:27;15.10;99.90
4687;DHT22;2357;47.316;-1.348;2023-11-19T13:32:54;16.50;99.90
4687;DHT22;2357;47.316;-1.348;2023-11-19T13:35:20;17.70;99.90
4687;DHT22;2357;47.316;-1.348;2023-11-19T13:37:47;18.10;99.90
4687;DHT22;2357;47.316;-1.348;2023-11-19T13:40:12;19.60;99.90
4687;DHT22;2357;47.316;-1.348;2023-11-19T13:42:42;20.70;99.90
4687;DHT22;2357;47.316;-1.348;2023-11-19T13:45:11;20.60;99.90
4687;DHT22;2357;47.316;-1.348;2023-11-19T13:47:44;20.20;99.90
4687;DHT22;2357;47.316;-1.348;2023-11-19T13:50:14;21.20;99.90
4687;DHT22;2357;47.316;-1.348;2023-11-19T13:52:42;21.50;99.90
4687;DHT22;2357;47.316;-1.348;2023-11-19T13:55:10;21.40;99.90
4687;DHT22;2357;47.316;-1.348;2023-11-19T13:57:40;21.60;99.90
4687;DHT22;2357;47.316;-1.348;2023-11-19T14:00:08;21.60;99.90
4687;DHT22;2357;47.316;-1.348;2023-11-19T14:02:45;21.60;99.90
4687;DHT22;2357;47.316;-1.348;2023-11-19T14:05:12;20.80;99.90
4687;DHT22;2357;47.316;-1.348;2023-11-19T14:07:40;20.30;99.90
4687;DHT22;2357;47.316;-1.348;2023-11-19T14:10:07;18.50;99.90
4687;DHT22;2357;47.316;-1.348;2023-11-19T14:12:34;17.30;99.90
4687;DHT22;2357;47.316;-1.348;2023-11-19T14:15:01;16.70;99.90
4687;DHT22;2357;47.316;-1.348;2023-11-19T14:17:27;16.20;99.90
4687;DHT22;2357;47.316;-1.348;2023-11-19T14:19:52;16.00;99.90
4687;DHT22;2357;47.316;-1.348;2023-11-19T14:22:18;15.80;99.90
4687;DHT22;2357;47.316;-1.348;2023-11-19T14:24:43;15.90;99.90
4687;DHT22;2357;47.316;-1.348;2023-11-19T14:27:10;15.90;99.90
4687;DHT22;2357;47.316;-1.348;2023-11-19T14:29:36;15.80;99.90
4687;DHT22;2357;47.316;-1.348;2023-11-19T14:32:02;15.90;99.90
4687;DHT22;2357;47.316;-1.348;2023-11-19T14:34:32;15.90;99.90
4687;DHT22;2357;47.316;-1.348;2023-11-19T14:36:58;16.00;99.90
4687;DHT22;2357;47.316;-1.348;2023-11-19T14:39:24;16.10;99.90
4687;DHT22;2357;47.316;-1.348;2023-11-19T14:41:49;15.80;99.90
4687;DHT22;2357;47.316;-1.348;2023-11-19T14:44:16;15.70;99.90
4687;DHT22;2357;47.316;-1.348;2023-11-19T14:46:42;15.40;99.90
4687;DHT22;2357;47.316;-1.348;2023-11-19T14:49:07;15.50;99.90
4687;DHT22;2357;47.316;-1.348;2023-11-19T14:51:39;15.40;99.90
4687;DHT22;2357;47.316;-1.348;2023-11-19T14:54:05;15.40;99.90
4687;DHT22;2357;47.316;-1.348;2023-11-19T14:56:31;15.60;99.90
4687;DHT22;2357;47.316;-1.348;2023-11-19T14:58:57;15.70;99.90
4687;DHT22;2357;47.316;-1.348;2023-11-19T15:01:24;15.70;99.90
4687;DHT22;2357;47.316;-1.348;2023-11-19T15:03:50;15.60;99.90
4687;DHT22;2357;47.316;-1.348;2023-11-19T15:06:16;15.60;99.90
4687;DHT22;2357;47.316;-1.348;2023-11-19T15:08:42;15.60;99.90
4687;DHT22;2357;47.316;-1.348;2023-11-19T15:11:08;15.70;99.90
4687;DHT22;2357;47.316;-1.348;2023-11-19T15:13:35;15.70;99.90
4687;DHT22;2357;47.316;-1.348;2023-11-19T15:16:03;15.70;99.90
4687;DHT22;2357;47.316;-1.348;2023-11-19T15:18:31;15.70;99.90
4687;DHT22;2357;47.316;-1.348;2023-11-19T15:20:57;15.50;99.90
4687;DHT22;2357;47.316;-1.348;2023-11-19T15:23:22;15.50;99.90
4687;DHT22;2357;47.316;-1.348;2023-11-19T15:25:48;15.40;99.90
4687;DHT22;2357;47.316;-1.348;2023-11-19T15:28:14;15.40;99.90
4687;DHT22;2357;47.316;-1.348;2023-11-19T15:30:40;15.40;99.90
4687;DHT22;2357;47.316;-1.348;2023-11-19T15:33:06;15.40;99.90
4687;DHT22;2357;47.316;-1.348;2023-11-19T15:35:34;15.30;99.90
4687;DHT22;2357;47.316;-1.348;2023-11-19T15:37:59;15.00;99.90
4687;DHT22;2357;47.316;-1.348;2023-11-19T15:40:25;15.00;99.90
4687;DHT22;2357;47.316;-1.348;2023-11-19T15:42:52;15.00;99.90
4687;DHT22;2357;47.316;-1.348;2023-11-19T15:45:20;15.00;99.90
4687;DHT22;2357;47.316;-1.348;2023-11-19T15:47:46;14.90;99.90
4687;DHT22;2357;47.316;-1.348;2023-11-19T15:50:11;14.90;99.90
4687;DHT22;2357;47.316;-1.348;2023-11-19T15:52:37;14.80;99.90
4687;DHT22;2357;47.316;-1.348;2023-11-19T15:55:04;14.80;99.90
4687;DHT22;2357;47.316;-1.348;2023-11-19T15:57:29;14.80;99.90
4687;DHT22;2357;47.316;-1.348;2023-11-19T15:59:55;14.80;99.90
4687;DHT22;2357;47.316;-1.348;2023-11-19T16:02:20;14.80;99.90
4687;DHT22;2357;47.316;-1.348;2023-11-19T16:04:46;14.80;99.90
4687;DHT22;2357;47.316;-1.348;2023-11-19T16:07:16;14.80;99.90